Time;durP1;ratioP1;P1;durP2;ratioP2;P2;SDS_P1;SDS_P2;PMS_P1;PMS_P2;Temp;Humidity;BMP_temperature;BMP_pressure;BME280_temperature;BME280_humidity;BME280_pressure;Samples;Min_cycle;Max_cycle;Signal;HPM_P1;HPM_P2
2023/09/20 00:00:54;;;;;;;12.83;5.20;;;16.90;99.90;;;;;;5075837;28;20055;-71
2023/09/20 00:03:20;;;;;;;15.17;5.00;;;16.80;99.90;;;;;;5075573;28;20493;-71
2023/09/20 00:05:49;;;;;;;13.50;4.33;;;16.90;99.90;;;;;;5074427;28;20127;-71
2023/09/20 00:08:15;;;;;;;10.77;4.90;;;16.90;99.90;;;;;;5075415;28;20041;-71
2023/09/20 00:10:41;;;;;;;15.47;5.00;;;16.90;99.90;;;;;;5075715;28;20068;-71
2023/09/20 00:13:09;;;;;;;11.73;4.83;;;16.80;99.90;;;;;;5075385;28;20396;-72
2023/09/20 00:15:35;;;;;;;17.00;5.40;;;16.80;99.90;;;;;;5075547;28;20051;-71
2023/09/20 00:18:01;;;;;;;15.93;5.67;;;16.90;99.90;;;;;;5075549;28;20036;-71
2023/09/20 00:20:27;;;;;;;14.57;4.43;;;16.90;99.90;;;;;;5074512;28;20052;-71
2023/09/20 00:22:53;;;;;;;12.30;3.97;;;17.00;99.90;;;;;;5075407;28;20036;-71
2023/09/20 00:25:19;;;;;;;15.87;4.57;;;17.00;99.90;;;;;;5075166;28;20055;-72
2023/09/20 00:27:47;;;;;;;12.47;4.20;;;17.00;99.90;;;;;;5057830;28;20439;-71
2023/09/20 00:30:18;;;;;;;11.77;4.40;;;17.00;99.90;;;;;;5075310;28;20443;-71
2023/09/20 00:32:44;;;;;;;14.70;4.37;;;17.00;99.90;;;;;;5075529;28;20098;-71
2023/09/20 00:35:12;;;;;;;12.77;3.90;;;17.10;99.90;;;;;;5074923;28;20044;-72
2023/09/20 00:37:42;;;;;;;14.67;4.80;;;17.10;99.90;;;;;;5074248;28;20041;-71
2023/09/20 00:40:21;;;;;;;14.27;4.83;;;17.10;99.90;;;;;;5073973;28;20109;-71
2023/09/20 00:42:52;;;;;;;16.13;4.43;;;17.00;99.90;;;;;;5075230;28;20056;-71
2023/09/20 00:45:19;;;;;;;14.73;4.67;;;17.10;99.90;;;;;;5074752;28;20366;-71
2023/09/20 00:47:55;;;;;;;17.93;4.70;;;17.10;99.90;;;;;;5075061;28;20049;-71
2023/09/20 00:50:22;;;;;;;12.83;4.30;;;17.10;99.90;;;;;;5074579;28;20049;-74
2023/09/20 00:52:51;;;;;;;13.47;4.33;;;17.10;99.90;;;;;;5058026;28;20127;-74
2023/09/20 00:55:23;;;;;;;12.90;4.93;;;17.10;99.90;;;;;;5075314;28;20040;-74
2023/09/20 00:57:51;;;;;;;20.07;5.50;;;17.10;99.90;;;;;;5075200;28;20064;-74
2023/09/20 01:00:27;;;;;;;14.83;4.37;;;17.10;99.90;;;;;;5074846;28;20056;-73
2023/09/20 01:02:54;;;;;;;13.10;4.40;;;17.10;99.90;;;;;;5075545;28;20048;-74
2023/09/20 01:05:25;;;;;;;16.37;4.90;;;17.10;99.90;;;;;;5075078;28;20072;-74
2023/09/20 01:07:56;;;;;;;16.40;4.93;;;17.10;99.90;;;;;;5075697;28;20396;-74
2023/09/20 01:10:23;;;;;;;10.57;4.53;;;17.10;99.90;;;;;;5075278;28;20115;-74
2023/09/20 01:12:51;;;;;;;13.77;4.67;;;17.10;99.90;;;;;;5075481;28;20052;-74
2023/09/20 01:15:17;;;;;;;16.87;5.33;;;17.10;99.90;;;;;;5057539;28;20051;-74
2023/09/20 01:17:47;;;;;;;18.23;4.87;;;17.10;99.90;;;;;;5074921;28;20131;-74
2023/09/20 01:20:13;;;;;;;16.27;5.30;;;17.10;99.90;;;;;;5073536;28;20163;-74
2023/09/20 01:22:40;;;;;;;14.63;4.23;;;17.10;99.90;;;;;;5075555;28;20071;-73
2023/09/20 01:25:11;;;;;;;12.07;4.57;;;17.10;99.90;;;;;;5074185;28;20048;-74
2023/09/20 01:27:38;;;;;;;13.47;4.87;;;17.10;99.90;;;;;;5074653;28;20123;-74
2023/09/20 01:30:05;;;;;;;13.90;4.50;;;17.10;99.90;;;;;;5074370;28;20574;-74
2023/09/20 01:32:31;;;;;;;16.87;5.00;;;17.10;99.90;;;;;;5073608;28;20405;-74
2023/09/20 01:34:58;;;;;;;12.83;4.53;;;17.10;99.90;;;;;;5074541;28;20047;-74
2023/09/20 01:37:24;;;;;;;14.53;4.30;;;17.10;99.90;;;;;;5074409;28;20054;-74
2023/09/20 01:39:49;;;;;;;16.23;4.57;;;17.10;99.90;;;;;;5074408;28;20127;-74
2023/09/20 01:42:17;;;;;;;13.73;3.90;;;17.10;99.90;;;;;;5074397;28;20044;-74
2023/09/20 01:44:42;;;;;;;13.80;4.53;;;17.20;99.90;;;;;;5074279;28;20386;-74
2023/09/20 01:47:08;;;;;;;13.17;4.23;;;17.10;99.90;;;;;;5074587;28;20090;-74
2023/09/20 01:49:34;;;;;;;14.27;4.50;;;17.20;99.90;;;;;;5073104;28;20048;-74
2023/09/20 01:52:01;;;;;;;12.50;4.53;;;17.20;99.90;;;;;;5073790;28;20373;-74
2023/09/20 01:54:30;;;;;;;16.10;4.17;;;17.20;99.90;;;;;;5074989;28;20139;-74
2023/09/20 01:56:56;;;;;;;12.77;4.40;;;17.20;99.90;;;;;;5073917;28;20064;-73
2023/09/20 01:59:21;;;;;;;12.63;3.90;;;17.20;99.90;;;;;;5073047;28;20105;-74
2023/09/20 02:01:50;;;;;;;11.97;3.87;;;17.20;99.90;;;;;;5074056;28;20044;-73
2023/09/20 02:04:17;;;;;;;13.67;4.27;;;17.20;99.90;;;;;;5073073;28;20045;-74
2023/09/20 02:06:43;;;;;;;14.63;4.00;;;17.20;99.90;;;;;;5073844;28;20059;-74
2023/09/20 02:09:09;;;;;;;15.43;4.47;;;17.20;99.90;;;;;;5073920;28;20045;-73
2023/09/20 02:11:35;;;;;;;11.17;4.10;;;17.20;99.90;;;;;;5074377;28;20045;-74
2023/09/20 02:14:00;;;;;;;12.47;4.50;;;17.20;99.90;;;;;;5074407;28;20051;-74
2023/09/20 02:16:26;;;;;;;13.93;4.70;;;17.20;99.90;;;;;;5072801;28;20044;-74
2023/09/20 02:18:53;;;;;;;14.17;4.50;;;17.20;99.90;;;;;;5072804;28;20177;-74
2023/09/20 02:21:19;;;;;;;14.67;4.27;;;17.10;99.90;;;;;;5073817;28;20585;-74
2023/09/20 02:23:45;;;;;;;10.43;3.93;;;17.10;99.90;;;;;;5073726;28;20052;-74
2023/09/20 02:26:12;;;;;;;12.70;4.27;;;17.20;99.90;;;;;;5055800;28;20071;-74
2023/09/20 02:28:38;;;;;;;9.93;4.27;;;17.20;99.90;;;;;;5072741;28;20392;-73
2023/09/20 02:31:04;;;;;;;10.97;3.90;;;17.10;99.90;;;;;;5072924;28;20048;-74
2023/09/20 02:33:30;;;;;;;12.37;4.23;;;17.20;99.90;;;;;;5074348;28;20388;-74
2023/09/20 02:35:57;;;;;;;13.57;4.17;;;17.20;99.90;;;;;;5073586;28;20044;-73
2023/09/20 02:38:22;;;;;;;10.80;4.00;;;17.10;99.90;;;;;;5073515;28;20080;-74
2023/09/20 02:40:50;;;;;;;14.10;3.83;;;17.20;99.90;;;;;;5073474;28;20499;-74
2023/09/20 02:43:16;;;;;;;13.33;3.73;;;17.10;99.90;;;;;;5073143;28;20059;-73
2023/09/20 02:45:45;;;;;;;14.30;4.43;;;17.10;99.90;;;;;;5073317;28;20138;-74
2023/09/20 02:48:12;;;;;;;14.60;4.27;;;17.10;99.90;;;;;;5073146;28;20488;-74
2023/09/20 02:50:41;;;;;;;14.57;3.60;;;17.10;99.90;;;;;;5072444;28;20044;-74
2023/09/20 02:53:07;;;;;;;14.03;3.50;;;17.10;99.90;;;;;;5073379;28;20047;-74
2023/09/20 02:55:34;;;;;;;7.30;3.17;;;17.10;99.90;;;;;;5073355;28;20081;-73
2023/09/20 02:58:00;;;;;;;11.57;4.03;;;17.20;99.90;;;;;;5073293;28;20070;-73
2023/09/20 03:00:28;;;;;;;11.53;3.50;;;17.10;99.90;;;;;;5073244;28;20127;-74
2023/09/20 03:03:00;;;;;;;11.63;3.90;;;17.20;99.90;;;;;;5073273;28;20049;-74
2023/09/20 03:05:31;;;;;;;13.57;4.23;;;17.20;99.90;;;;;;5072928;28;20493;-75
2023/09/20 03:07:57;;;;;;;11.20;4.37;;;17.20;99.90;;;;;;5073776;28;20040;-74
2023/09/20 03:10:23;;;;;;;11.37;4.20;;;17.20;99.90;;;;;;5073186;28;20071;-74
2023/09/20 03:12:57;;;;;;;14.00;4.03;;;17.10;99.90;;;;;;5072135;28;20523;-74
2023/09/20 03:15:25;;;;;;;10.70;3.63;;;17.10;99.90;;;;;;5073439;28;20041;-74
2023/09/20 03:17:58;;;;;;;12.87;4.03;;;17.10;99.90;;;;;;5073051;28;20120;-74
2023/09/20 03:20:25;;;;;;;12.33;3.70;;;17.10;99.90;;;;;;5073864;28;20440;-74
2023/09/20 03:22:59;;;;;;;13.47;3.97;;;17.10;99.90;;;;;;5072117;28;20126;-74
2023/09/20 03:25:28;;;;;;;11.77;3.57;;;17.10;99.90;;;;;;5073526;28;20127;-74
2023/09/20 03:27:55;;;;;;;11.43;3.97;;;17.10;99.90;;;;;;5072987;28;20083;-74
2023/09/20 03:30:21;;;;;;;11.33;3.73;;;17.00;99.90;;;;;;5073549;28;20052;-73
2023/09/20 03:32:48;;;;;;;11.73;4.03;;;17.00;99.90;;;;;;5072938;28;20052;-73
2023/09/20 03:35:14;;;;;;;11.03;3.87;;;17.00;99.90;;;;;;5072949;28;20043;-74
2023/09/20 03:37:41;;;;;;;10.13;4.20;;;17.00;99.90;;;;;;5072594;28;20485;-73
2023/09/20 03:40:16;;;;;;;14.00;4.37;;;17.10;99.90;;;;;;5072874;28;20048;-73
2023/09/20 03:42:42;;;;;;;;;;;17.00;99.90;;;;;;5073137;28;20044;-73
2023/09/20 03:45:10;;;;;;;15.40;4.63;;;17.00;99.90;;;;;;5072799;28;20289;-73
2023/09/20 03:47:36;;;;;;;15.90;5.57;;;17.00;99.90;;;;;;5072833;28;20048;-73
2023/09/20 03:50:04;;;;;;;10.90;3.50;;;17.00;99.90;;;;;;5072837;28;20049;-73
2023/09/20 03:52:29;;;;;;;16.50;3.80;;;17.00;99.90;;;;;;5073341;28;20049;-73
2023/09/20 03:54:55;;;;;;;15.20;3.67;;;17.00;99.90;;;;;;5074176;28;20040;-73
2023/09/20 03:57:24;;;;;;;11.53;3.87;;;17.00;99.90;;;;;;5074967;28;20106;-73
2023/09/20 03:59:51;;;;;;;14.97;4.47;;;17.00;99.90;;;;;;5076568;28;20044;-74
2023/09/20 04:02:17;;;;;;;13.50;4.60;;;17.00;99.90;;;;;;5075619;28;20055;-73
2023/09/20 04:04:43;;;;;;;14.37;4.93;;;17.00;99.90;;;;;;5076212;28;20044;-74
2023/09/20 04:07:09;;;;;;;13.57;3.83;;;17.00;99.90;;;;;;5076217;28;20052;-73
2023/09/20 04:09:35;;;;;;;12.03;4.43;;;17.00;99.90;;;;;;5076953;28;20080;-74
2023/09/20 04:12:03;;;;;;;14.90;4.93;;;16.90;99.90;;;;;;5074941;28;20044;-73
2023/09/20 04:14:28;;;;;;;12.70;4.10;;;17.00;99.90;;;;;;5076860;28;20048;-74
2023/09/20 04:16:54;;;;;;;14.73;4.40;;;16.90;99.90;;;;;;5076249;28;20043;-74
2023/09/20 04:19:21;;;;;;;11.00;4.33;;;16.90;99.90;;;;;;5075006;28;20137;-74
2023/09/20 04:21:50;;;;;;;14.57;4.30;;;16.90;99.90;;;;;;5075882;28;20070;-74
2023/09/20 04:24:17;;;;;;;13.20;5.07;;;16.80;99.90;;;;;;5076161;28;20492;-74
2023/09/20 04:26:43;;;;;;;13.30;3.90;;;16.80;99.90;;;;;;5074184;28;20047;-73
2023/09/20 04:29:10;;;;;;;13.03;4.37;;;16.80;99.90;;;;;;5058075;28;20048;-73
2023/09/20 04:31:36;;;;;;;14.17;4.70;;;16.80;99.90;;;;;;5076493;28;20048;-73
2023/09/20 04:34:02;;;;;;;11.83;4.43;;;16.80;99.90;;;;;;5074502;28;20052;-73
2023/09/20 04:36:27;;;;;;;15.07;4.33;;;16.80;99.90;;;;;;5075666;28;20040;-73
2023/09/20 04:38:55;;;;;;;12.43;4.30;;;16.70;99.90;;;;;;5075591;28;20048;-74
2023/09/20 04:41:21;;;;;;;10.70;4.37;;;16.80;99.90;;;;;;5075529;28;20119;-73
2023/09/20 04:43:50;;;;;;;14.47;4.67;;;16.70;99.90;;;;;;5074192;28;20048;-73
2023/09/20 04:46:16;;;;;;;10.57;3.53;;;16.70;99.90;;;;;;5075042;28;20477;-74
2023/09/20 04:48:42;;;;;;;11.07;3.80;;;16.60;99.90;;;;;;5075352;28;20084;-74
2023/09/20 04:51:09;;;;;;;12.13;4.70;;;16.60;99.90;;;;;;5075157;28;20048;-73
2023/09/20 04:53:35;;;;;;;14.87;4.17;;;16.60;99.90;;;;;;5075278;28;20047;-74
2023/09/20 04:56:02;;;;;;;9.50;4.40;;;16.50;99.90;;;;;;5075200;28;20131;-73
2023/09/20 04:58:28;;;;;;;13.57;4.23;;;16.50;99.90;;;;;;5073784;28;20403;-73
2023/09/20 05:00:54;;;;;;;12.20;4.20;;;16.50;99.90;;;;;;5074165;28;20396;-73
2023/09/20 05:03:20;;;;;;;13.57;4.73;;;16.50;99.90;;;;;;5075094;28;20048;-73
2023/09/20 05:05:51;;;;;;;13.60;4.63;;;16.50;99.90;;;;;;5074765;28;20044;-73
2023/09/20 05:08:18;;;;;;;10.03;4.17;;;16.50;99.90;;;;;;5075001;28;20055;-73
2023/09/20 05:10:44;;;;;;;14.47;5.07;;;16.50;99.90;;;;;;5057478;28;20053;-73
2023/09/20 05:13:10;;;;;;;9.87;4.63;;;16.50;99.90;;;;;;5074987;28;20044;-73
2023/09/20 05:15:39;;;;;;;14.10;4.93;;;16.50;99.90;;;;;;5074840;28;20079;-73
2023/09/20 05:18:06;;;;;;;12.53;4.47;;;16.40;99.90;;;;;;5074104;28;20048;-73
2023/09/20 05:20:32;;;;;;;10.37;3.70;;;16.40;99.90;;;;;;5074830;28;20048;-73
2023/09/20 05:23:03;;;;;;;17.43;4.70;;;16.40;99.90;;;;;;5073478;28;20067;-73
2023/09/20 05:25:29;;;;;;;11.13;4.20;;;16.40;99.90;;;;;;5074613;28;20220;-73
2023/09/20 05:27:54;;;;;;;12.30;4.03;;;16.40;99.90;;;;;;5074621;28;20203;-73
2023/09/20 05:30:21;;;;;;;9.97;4.60;;;16.40;99.90;;;;;;5073334;28;20055;-73
2023/09/20 05:32:51;;;;;;;11.10;4.40;;;16.30;99.90;;;;;;5074407;28;20472;-73
2023/09/20 05:35:17;;;;;;;12.10;4.60;;;16.30;99.90;;;;;;5074450;28;20044;-73
2023/09/20 05:37:44;;;;;;;15.47;4.27;;;16.30;99.90;;;;;;5074394;28;20052;-73
2023/09/20 05:40:19;;;;;;;10.63;4.07;;;16.40;99.90;;;;;;5074265;28;20135;-73
2023/09/20 05:42:45;;;;;;;14.38;3.83;;;16.40;99.90;;;;;;5074298;28;20044;-73
2023/09/20 05:45:12;;;;;;;11.50;4.17;;;16.40;99.90;;;;;;5074774;28;20032;-73
2023/09/20 05:47:40;;;;;;;11.87;4.13;;;16.40;99.90;;;;;;5074217;28;20131;-73
2023/09/20 05:50:07;;;;;;;14.03;4.10;;;16.40;99.90;;;;;;5073129;28;20048;-72
2023/09/20 05:52:33;;;;;;;10.23;3.93;;;16.40;99.90;;;;;;5074139;28;20098;-72
2023/09/20 05:54:58;;;;;;;10.93;3.73;;;16.50;99.90;;;;;;5072889;28;20044;-72
2023/09/20 05:57:27;;;;;;;13.57;4.80;;;16.50;99.90;;;;;;5073714;28;20112;-72
2023/09/20 05:59:54;;;;;;;11.03;4.20;;;16.50;99.90;;;;;;5073886;28;20045;-73
2023/09/20 06:02:20;;;;;;;13.13;4.60;;;16.50;99.90;;;;;;5073188;28;20086;-73
2023/09/20 06:04:46;;;;;;;10.57;3.90;;;16.50;99.90;;;;;;5074087;28;20084;-74
2023/09/20 06:07:11;;;;;;;13.27;3.33;;;16.50;99.90;;;;;;5073790;28;20037;-74
2023/09/20 06:09:38;;;;;;;13.53;3.80;;;16.50;99.90;;;;;;5072848;28;20102;-73
2023/09/20 06:12:04;;;;;;;11.70;3.97;;;16.50;99.90;;;;;;5074202;28;20435;-74
2023/09/20 06:14:29;;;;;;;10.87;3.53;;;16.50;99.90;;;;;;5089578;28;20056;-74
2023/09/20 06:16:55;;;;;;;8.67;3.70;;;16.50;99.90;;;;;;5072807;28;20101;-72
2023/09/20 06:19:21;;;;;;;13.50;3.60;;;16.60;99.90;;;;;;5072472;28;20170;-71
2023/09/20 06:21:47;;;;;;;12.57;3.97;;;16.60;99.90;;;;;;5073639;28;20125;-71
2023/09/20 06:24:13;;;;;;;10.63;3.60;;;16.50;99.90;;;;;;5073617;28;20515;-72
2023/09/20 06:26:43;;;;;;;16.63;3.87;;;16.60;99.90;;;;;;5073499;28;20084;-72
2023/09/20 06:29:09;;;;;;;10.77;3.90;;;16.60;99.90;;;;;;5073523;28;20135;-72
2023/09/20 06:31:37;;;;;;;14.87;3.57;;;16.60;99.90;;;;;;5073995;28;20182;-72
2023/09/20 06:34:04;;;;;;;9.17;3.17;;;16.60;99.90;;;;;;5073698;28;20067;-72
2023/09/20 06:36:29;;;;;;;12.30;3.80;;;16.60;99.90;;;;;;5073693;28;20048;-71
2023/09/20 06:38:55;;;;;;;10.30;3.23;;;16.60;99.90;;;;;;5073415;28;20131;-70
2023/09/20 06:41:23;;;;;;;9.40;3.50;;;16.60;99.90;;;;;;5073471;28;20530;-72
2023/09/20 06:43:49;;;;;;;8.70;3.07;;;16.60;99.90;;;;;;5055698;28;20052;-72
2023/09/20 06:46:14;;;;;;;11.93;3.60;;;16.70;99.90;;;;;;5073224;28;20055;-72
2023/09/20 06:48:40;;;;;;;9.60;3.07;;;16.60;99.90;;;;;;5073349;28;20072;-72
2023/09/20 06:51:06;;;;;;;11.27;4.03;;;16.60;99.90;;;;;;5072968;28;20082;-72
2023/09/20 06:53:32;;;;;;;11.03;3.40;;;16.70;99.90;;;;;;5073812;28;20110;-72
2023/09/20 06:55:59;;;;;;;8.17;3.07;;;16.60;99.90;;;;;;5073175;28;20040;-71
2023/09/20 06:58:26;;;;;;;11.43;3.37;;;16.60;99.90;;;;;;5074045;28;20158;-70
2023/09/20 07:00:52;;;;;;;9.97;4.07;;;16.60;99.90;;;;;;5072951;28;20519;-71
2023/09/20 07:03:18;;;;;;;7.90;3.73;;;16.70;99.90;;;;;;5073431;28;20131;-71
2023/09/20 07:05:45;;;;;;;9.53;3.50;;;16.70;99.90;;;;;;5073132;28;20040;-71
2023/09/20 07:08:10;;;;;;;8.77;3.23;;;16.70;99.90;;;;;;5073188;28;20489;-71
2023/09/20 07:10:41;;;;;;;9.23;3.40;;;16.70;99.90;;;;;;5072878;28;20053;-71
2023/09/20 07:13:09;;;;;;;10.83;3.30;;;16.80;99.90;;;;;;5073421;28;20040;-71
2023/09/20 07:15:36;;;;;;;8.83;3.73;;;16.80;99.90;;;;;;5073061;28;20040;-71
2023/09/20 07:18:11;;;;;;;11.47;3.60;;;16.90;99.90;;;;;;5072982;28;20048;-71
2023/09/20 07:20:39;;;;;;;10.47;3.30;;;16.90;99.90;;;;;;5073355;28;20048;-71
2023/09/20 07:23:08;;;;;;;8.87;3.33;;;16.90;99.90;;;;;;5073054;28;20044;-71
2023/09/20 07:25:38;;;;;;;9.20;2.93;;;17.00;99.90;;;;;;5072908;28;20087;-71
2023/09/20 07:28:06;;;;;;;9.43;3.30;;;17.00;99.90;;;;;;5071959;28;20098;-71
2023/09/20 07:30:34;;;;;;;8.80;3.63;;;17.10;99.90;;;;;;5076180;28;20361;-71
2023/09/20 07:33:03;;;;;;;12.53;3.23;;;17.10;99.90;;;;;;5075537;28;20048;-71
2023/09/20 07:35:38;;;;;;;9.10;3.60;;;17.20;99.90;;;;;;5076701;28;20143;-71
2023/09/20 07:38:32;;;;;;;9.90;3.15;;;17.20;99.90;;;;;;5076725;28;20051;-70
2023/09/20 07:41:12;;;;;;;13.50;4.40;;;17.30;99.90;;;;;;5076878;28;20059;-71
2023/09/20 07:43:38;;;;;;;11.83;3.87;;;17.50;99.90;;;;;;5076928;28;20127;-70
2023/09/20 07:46:07;;;;;;;11.87;3.57;;;17.60;99.90;;;;;;5076491;28;20071;-71
2023/09/20 07:48:34;;;;;;;8.70;3.20;;;17.70;99.90;;;;;;5076428;28;20040;-70
2023/09/20 07:51:04;;;;;;;10.83;3.83;;;17.70;99.90;;;;;;5076407;28;20080;-72
2023/09/20 07:53:30;;;;;;;9.83;3.30;;;17.80;99.90;;;;;;5058675;28;20118;-71
2023/09/20 07:55:57;;;;;;;10.77;3.60;;;17.80;99.90;;;;;;5075630;28;20044;-70
2023/09/20 07:58:23;;;;;;;10.43;3.70;;;17.90;99.90;;;;;;5075862;28;20079;-72
2023/09/20 08:00:55;;;;;;;8.80;3.63;;;17.90;99.90;;;;;;5076272;28;20057;-72
2023/09/20 08:03:22;;;;;;;15.57;4.00;;;17.90;99.90;;;;;;5075493;28;20170;-70
2023/09/20 08:05:52;;;;;;;8.73;3.53;;;17.90;99.90;;;;;;5075729;28;20560;-71
2023/09/20 08:08:18;;;;;;;8.30;3.50;;;17.90;99.90;;;;;;5076143;28;20076;-72
2023/09/20 08:10:44;;;;;;;10.60;3.90;;;18.00;99.90;;;;;;5076305;28;20500;-70
2023/09/20 08:13:12;;;;;;;11.33;3.70;;;18.10;99.90;;;;;;5075463;28;20044;-69
2023/09/20 08:15:44;;;;;;;10.83;3.47;;;18.10;99.90;;;;;;5076029;28;20053;-70
2023/09/20 08:20:57;;;;;;;9.67;3.20;;;18.10;99.90;;;;;;5076245;28;20070;-70
2023/09/20 09:02:17;;;;;;;7.07;3.40;;;17.80;99.90;;;;;;5075176;28;20052;-71
2023/09/20 09:04:48;;;;;;;10.27;3.80;;;17.80;99.90;;;;;;5074036;28;20057;-70
2023/09/20 09:07:14;;;;;;;8.80;3.33;;;17.80;99.90;;;;;;5073737;28;20127;-70
2023/09/20 09:09:41;;;;;;;9.87;3.30;;;17.80;99.90;;;;;;5075240;28;20131;-70
2023/09/20 09:12:08;;;;;;;9.97;3.57;;;17.80;99.90;;;;;;5073973;28;20056;-70
2023/09/20 09:14:37;;;;;;;7.43;3.77;;;17.80;99.90;;;;;;5074877;28;20040;-71
2023/09/20 09:17:06;;;;;;;10.20;3.47;;;17.80;99.90;;;;;;5074835;28;20040;-71
2023/09/20 09:19:33;;;;;;;8.40;3.23;;;17.80;99.90;;;;;;5074758;28;20105;-72
2023/09/20 09:22:00;;;;;;;8.17;3.80;;;17.80;99.90;;;;;;5075207;28;20479;-71
2023/09/20 09:24:27;;;;;;;6.73;2.90;;;17.80;99.90;;;;;;5074324;28;20489;-71
2023/09/20 09:27:08;;;;;;;8.37;3.93;;;17.80;99.90;;;;;;5075287;28;20047;-72
2023/09/20 09:29:34;;;;;;;9.53;3.93;;;17.90;99.90;;;;;;5074820;28;20503;-73
2023/09/20 09:32:04;;;;;;;9.60;3.93;;;17.90;99.90;;;;;;5074542;28;20055;-72
2023/09/20 09:34:30;;;;;;;9.40;4.00;;;17.90;99.90;;;;;;5074473;28;20113;-71
2023/09/20 09:36:56;;;;;;;8.37;3.57;;;17.90;99.90;;;;;;5074520;28;20048;-71
2023/09/20 09:39:24;;;;;;;9.67;3.93;;;17.90;99.90;;;;;;5074322;28;20450;-72
2023/09/20 09:41:51;;;;;;;8.73;3.60;;;18.00;99.90;;;;;;5074093;28;20504;-72
2023/09/20 09:44:17;;;;;;;8.60;3.93;;;18.00;99.90;;;;;;5074306;28;20044;-72
2023/09/20 09:46:43;;;;;;;7.83;4.10;;;18.10;99.90;;;;;;5074694;28;20052;-70
2023/09/20 09:49:18;;;;;;;7.60;3.60;;;18.20;99.90;;;;;;5073868;28;20044;-72
2023/09/20 09:51:51;;;;;;;11.40;4.30;;;18.20;99.90;;;;;;5073196;28;20059;-74
2023/09/20 09:54:18;;;;;;;8.50;4.10;;;18.30;99.90;;;;;;5073029;28;20106;-74
2023/09/20 09:56:44;;;;;;;10.97;4.17;;;18.30;99.90;;;;;;5073870;28;20048;-73
2023/09/20 09:59:10;;;;;;;7.13;3.90;;;18.40;99.90;;;;;;5072247;28;20052;-72
2023/09/20 10:01:40;;;;;;;7.93;4.03;;;18.50;99.90;;;;;;5072704;28;20048;-70
2023/09/20 10:04:13;;;;;;;9.90;4.20;;;18.50;99.90;;;;;;5073812;28;20041;-72
2023/09/20 10:06:45;;;;;;;10.50;3.77;;;18.60;99.90;;;;;;5073807;28;20484;-73
2023/09/20 10:09:12;;;;;;;8.57;4.23;;;18.60;99.90;;;;;;5073509;28;20136;-72
2023/09/20 10:11:39;;;;;;;10.50;4.67;;;18.60;99.90;;;;;;5074060;28;20106;-73
2023/09/20 10:14:07;;;;;;;7.47;4.00;;;18.60;99.90;;;;;;5073923;28;20044;-73
2023/09/20 10:16:42;;;;;;;7.67;3.80;;;18.60;99.90;;;;;;5072539;28;20057;-72
2023/09/20 10:19:12;;;;;;;7.37;4.23;;;18.60;99.90;;;;;;5073931;28;20125;-72
2023/09/20 10:21:40;;;;;;;7.57;4.50;;;18.60;99.90;;;;;;5056199;28;20060;-72
2023/09/20 10:24:14;;;;;;;7.93;4.03;;;18.60;99.90;;;;;;5073786;28;20052;-72
2023/09/20 10:26:40;;;;;;;7.77;4.13;;;18.60;99.90;;;;;;5073061;28;20106;-73
2023/09/20 10:29:26;;;;;;;7.57;4.13;;;18.50;99.90;;;;;;5073510;28;20123;-72
2023/09/20 10:32:17;;;;;;;8.13;4.00;;;18.50;99.90;;;;;;5089992;28;20052;-70
2023/09/20 10:35:29;;;;;;;6.50;3.57;;;18.50;99.90;;;;;;5073313;28;20548;-70
2023/09/20 10:38:08;;;;;;;7.33;3.70;;;18.40;99.90;;;;;;5074048;28;20049;-71
2023/09/20 10:40:45;;;;;;;10.70;4.33;;;18.40;99.90;;;;;;5074168;28;20048;-71
2023/09/20 10:43:41;;;;;;;7.70;3.90;;;18.40;99.90;;;;;;5073928;28;20048;-72
2023/09/20 10:46:18;;;;;;;7.53;4.15;;;18.40;99.90;;;;;;5071806;28;20515;-71
2023/09/20 10:48:49;;;;;;;8.53;3.93;;;18.40;99.90;;;;;;5072345;28;20044;-72
2023/09/20 10:51:48;;;;;;;7.57;3.93;;;18.30;99.90;;;;;;5073342;28;20055;-72
2023/09/20 10:54:18;;;;;;;10.70;3.87;;;18.40;99.90;;;;;;5073665;28;20056;-71
2023/09/20 10:56:55;;;;;;;7.70;4.37;;;18.40;99.90;;;;;;5073232;28;20051;-71
2023/09/20 10:59:25;;;;;;;8.13;4.20;;;18.40;99.90;;;;;;5071715;28;20092;-71
2023/09/20 11:01:58;;;;;;;9.77;4.30;;;18.40;99.90;;;;;;5072050;28;20515;-71
2023/09/20 11:04:24;;;;;;;6.93;4.40;;;18.30;99.90;;;;;;5076081;28;20110;-76
2023/09/20 11:06:52;;;;;;;10.00;4.40;;;18.40;99.90;;;;;;5076202;28;20044;-78
2023/09/20 11:09:20;;;;;;;12.30;4.97;;;18.40;99.90;;;;;;5077194;28;20123;-75
2023/09/20 11:11:48;;;;;;;9.73;4.83;;;18.40;99.90;;;;;;5077209;28;20056;-74
2023/09/20 11:14:14;;;;;;;8.13;4.40;;;18.40;99.90;;;;;;5076044;28;20105;-74
2023/09/20 11:16:42;;;;;;;8.23;4.67;;;18.40;99.90;;;;;;5076078;28;20131;-74
2023/09/20 11:19:12;;;;;;;8.40;5.40;;;18.40;99.90;;;;;;5059445;28;20502;-74
2023/09/20 11:21:42;;;;;;;8.73;4.60;;;18.40;99.90;;;;;;5075695;28;20052;-74
2023/09/20 11:24:10;;;;;;;9.70;4.90;;;18.50;99.90;;;;;;5076871;28;20122;-73
2023/09/20 11:26:36;;;;;;;8.50;4.27;;;18.50;99.90;;;;;;5075310;28;20044;-73
2023/09/20 11:29:04;;;;;;;8.17;4.40;;;18.60;99.90;;;;;;5076752;28;20048;-73
2023/09/20 11:31:32;;;;;;;9.13;4.80;;;18.60;99.90;;;;;;5076834;28;20123;-75
2023/09/20 11:34:06;;;;;;;14.00;5.87;;;18.60;99.90;;;;;;5076300;28;20086;-74
2023/09/20 11:36:38;;;;;;;9.50;5.10;;;18.60;99.90;;;;;;5076670;28;20051;-74
2023/09/20 11:39:05;;;;;;;9.20;4.50;;;18.60;99.90;;;;;;5075821;28;20514;-74
2023/09/20 11:41:32;;;;;;;8.80;5.43;;;18.60;99.90;;;;;;5075314;28;20123;-74
2023/09/20 11:44:00;;;;;;;9.90;5.70;;;18.70;99.90;;;;;;5076488;28;20443;-76
2023/09/20 11:46:33;;;;;;;7.37;4.77;;;18.80;99.90;;;;;;5076440;28;20051;-74
2023/09/20 11:49:03;;;;;;;8.17;4.70;;;18.80;99.90;;;;;;5076290;28;20155;-73
2023/09/20 11:51:30;;;;;;;11.77;5.33;;;18.80;99.90;;;;;;5075249;28;20044;-74
2023/09/20 11:53:57;;;;;;;8.60;4.60;;;18.80;99.90;;;;;;5076737;28;20128;-73
2023/09/20 11:56:33;;;;;;;8.97;4.40;;;18.80;99.90;;;;;;5075291;28;20433;-73
2023/09/20 11:59:00;;;;;;;8.03;4.63;;;18.70;99.90;;;;;;5076135;28;20470;-74
2023/09/20 12:01:30;;;;;;;8.77;4.60;;;18.70;99.90;;;;;;5076244;28;20084;-74
2023/09/20 12:03:59;;;;;;;9.80;3.93;;;18.70;99.90;;;;;;5075036;28;20048;-74
2023/09/20 12:06:25;;;;;;;10.37;4.77;;;18.60;99.90;;;;;;5074687;28;20063;-73
2023/09/20 12:08:53;;;;;;;10.93;4.00;;;18.70;99.90;;;;;;5076511;28;20473;-73
2023/09/20 12:11:19;;;;;;;8.70;3.50;;;18.70;99.90;;;;;;5075981;28;20222;-75
2023/09/20 12:13:46;;;;;;;9.47;4.60;;;18.60;99.90;;;;;;5075816;28;20052;-73
2023/09/20 12:16:14;;;;;;;7.17;4.10;;;18.70;99.90;;;;;;5057461;28;20378;-73
2023/09/20 12:18:41;;;;;;;7.77;4.17;;;18.70;99.90;;;;;;5075713;28;20511;-75
2023/09/20 12:21:10;;;;;;;9.43;3.87;;;18.60;99.90;;;;;;5075899;28;20099;-70
2023/09/20 12:23:36;;;;;;;7.70;4.00;;;18.70;99.90;;;;;;5075723;28;20087;-75
2023/09/20 12:26:03;;;;;;;9.97;3.40;;;18.80;99.90;;;;;;5076442;28;20105;-74
2023/09/20 12:28:29;;;;;;;9.67;3.33;;;18.80;99.90;;;;;;5074878;28;20044;-74
2023/09/20 12:30:58;;;;;;;6.60;3.97;;;18.80;99.90;;;;;;5075963;28;20044;-73
2023/09/20 12:33:24;;;;;;;6.33;3.90;;;18.90;99.90;;;;;;5074607;28;20106;-73
2023/09/20 12:35:52;;;;;;;9.13;4.00;;;18.80;99.90;;;;;;5074369;28;20033;-74
2023/09/20 12:38:18;;;;;;;9.27;4.30;;;18.80;99.90;;;;;;5075404;28;20084;-73
2023/09/20 12:40:44;;;;;;;9.00;4.20;;;18.90;99.90;;;;;;5075452;28;20080;-73
2023/09/20 12:43:09;;;;;;;8.77;4.23;;;18.90;99.90;;;;;;5074974;28;20059;-71
2023/09/20 12:45:35;;;;;;;7.93;4.80;;;18.90;99.90;;;;;;5074142;28;20045;-74
2023/09/20 12:48:01;;;;;;;8.50;4.50;;;18.90;99.90;;;;;;5075513;28;20058;-72
2023/09/20 12:50:33;;;;;;;11.23;4.57;;;18.90;99.90;;;;;;5075348;28;20048;-72
2023/09/20 12:52:59;;;;;;;8.03;4.17;;;18.90;99.90;;;;;;5075284;28;20083;-74
2023/09/20 12:55:27;;;;;;;8.87;4.87;;;18.90;99.90;;;;;;5073718;28;20076;-73
2023/09/20 12:57:53;;;;;;;10.50;4.23;;;19.00;99.90;;;;;;5075703;28;20045;-72
2023/09/20 13:00:19;;;;;;;7.10;3.87;;;19.10;99.90;;;;;;5074913;28;20053;-73
2023/09/20 13:02:45;;;;;;;6.50;3.77;;;19.10;99.90;;;;;;5074038;28;20058;-72
2023/09/20 13:05:12;;;;;;;8.13;4.27;;;19.20;99.90;;;;;;5074975;28;20150;-72
2023/09/20 13:07:39;;;;;;;10.27;3.83;;;19.30;99.90;;;;;;5074792;28;20097;-72
2023/09/20 13:10:13;;;;;;;8.40;4.17;;;19.40;99.90;;;;;;5074910;28;20048;-73
2023/09/20 13:12:41;;;;;;;6.37;3.47;;;19.40;99.90;;;;;;5074020;28;20066;-73
2023/09/20 13:15:14;;;;;;;9.20;4.43;;;19.50;99.90;;;;;;5073624;28;20044;-73
2023/09/20 13:17:44;;;;;;;7.20;4.03;;;19.50;99.90;;;;;;5074746;28;20052;-73
2023/09/20 13:20:13;;;;;;;9.27;4.07;;;19.60;99.90;;;;;;5074705;28;20052;-72
2023/09/20 13:22:40;;;;;;;5.50;3.20;;;19.60;99.90;;;;;;5057588;28;20063;-73
2023/09/20 13:25:08;;;;;;;6.83;3.40;;;19.70;99.90;;;;;;5075327;28;20067;-73
2023/09/20 13:27:35;;;;;;;7.17;2.80;;;19.70;99.90;;;;;;5074630;28;20056;-74